Baxter Springs, Kansas
Current Conditions -  °F | °C
As of 2:53 AM on Friday 31 Oct 2014 (Local Time) from KJLN Reporting Station
Clear Clear  
Wind Chill: 44°   Ceiling: Unl
Heat Index: 49°   Visibility: 10mi
Dew Point: 41°   Wind: 12mph
Humidity: 74%   Direction: 350°N
Pressure: 30.21"   Gusts: NA
Location:  37.02°N, 94.74°W
Report Text: KJLN 310753Z AUTO 35010KT 10SM CLR 09/05 A3021 RMK AO2 SLP225 T00940050 PWINO $
Loading
Personal Weather Stations






























Interactive Weather Map
Tropical Storm Tracking
New forecast layout! Learn more

10-Day Weather Forecast

Advertisements
Track Severe Weather on mobile